Las Bayas, Argentina
Current Conditions -  °F | °C
As of 11:22 AM on Sunday 23 Nov 2014 (Local Time) from SAZS Reporting Station
Light Rain Light Rain  
Wind Chill: 10°   Ceiling: 6000
Heat Index: 10°   Visibility: 5mi
Dew Point:   Wind: 28mph
Humidity: 66%   Direction: 290°WNW
Pressure: 29.74"   Gusts: NA
Location:  41.29°S, 70.7°W
Report Text: SAZS 231422Z 29024KT 8000 -RA SCT015 BKN060 10/04 Q1007
Loading
Personal Weather Stations






























Interactive Weather Map New forecast layout! Learn more

10-Day Weather Forecast

Advertisements
Track Severe Weather on mobile